sensor_id;sensor_type;location;lat;lon;timestamp;pressure;altitude;pressure_sealevel;temperature;humidity
69980;BME280;57318;56.232;43.944;2023-07-13T00:01:55;98076.78;;;10.07;94.56
69980;BME280;57318;56.232;43.944;2023-07-13T00:04:24;98080.75;;;10.03;94.61
69980;BME280;57318;56.232;43.944;2023-07-13T00:06:51;98086.34;;;10.00;94.85
69980;BME280;57318;56.232;43.944;2023-07-13T00:09:18;98076.88;;;9.98;95.07
69980;BME280;57318;56.232;43.944;2023-07-13T00:11:45;98081.50;;;9.96;95.32
69980;BME280;57318;56.232;43.944;2023-07-13T00:14:13;98076.34;;;9.94;95.61
69980;BME280;57318;56.232;43.944;2023-07-13T00:16:41;98089.75;;;9.92;95.52
69980;BME280;57318;56.232;43.944;2023-07-13T00:19:10;98086.44;;;9.90;95.58
69980;BME280;57318;56.232;43.944;2023-07-13T00:21:37;98081.44;;;9.87;95.77
69980;BME280;57318;56.232;43.944;2023-07-13T00:24:03;98081.59;;;9.86;95.75
69980;BME280;57318;56.232;43.944;2023-07-13T00:26:29;98082.84;;;9.82;95.89
69980;BME280;57318;56.232;43.944;2023-07-13T00:28:55;98085.66;;;9.80;95.74
69980;BME280;57318;56.232;43.944;2023-07-13T00:31:21;98094.91;;;9.76;95.74
69980;BME280;57318;56.232;43.944;2023-07-13T00:33:46;98091.72;;;9.72;96.06
69980;BME280;57318;56.232;43.944;2023-07-13T00:36:12;98103.31;;;9.71;96.22
69980;BME280;57318;56.232;43.944;2023-07-13T00:38:38;98099.16;;;9.69;96.26
69980;BME280;57318;56.232;43.944;2023-07-13T00:41:04;98096.81;;;9.66;96.69
69980;BME280;57318;56.232;43.944;2023-07-13T00:43:30;98105.59;;;9.66;96.47
69980;BME280;57318;56.232;43.944;2023-07-13T00:48:26;98096.28;;;9.62;96.66
69980;BME280;57318;56.232;43.944;2023-07-13T00:50:55;98095.28;;;9.63;96.63
69980;BME280;57318;56.232;43.944;2023-07-13T00:53:22;98096.28;;;9.62;96.83
69980;BME280;57318;56.232;43.944;2023-07-13T00:55:51;98096.44;;;9.61;96.61
69980;BME280;57318;56.232;43.944;2023-07-13T00:58:19;98096.56;;;9.59;96.53
69980;BME280;57318;56.232;43.944;2023-07-13T01:00:46;98093.91;;;9.59;96.65
69980;BME280;57318;56.232;43.944;2023-07-13T01:03:12;98097.53;;;9.58;96.50
69980;BME280;57318;56.232;43.944;2023-07-13T01:05:38;98101.47;;;9.54;96.25
69980;BME280;57318;56.232;43.944;2023-07-13T01:08:04;98096.16;;;9.54;96.37
69980;BME280;57318;56.232;43.944;2023-07-13T01:10:31;98099.81;;;9.53;96.17
69980;BME280;57318;56.232;43.944;2023-07-13T01:13:06;98107.06;;;9.51;96.50
69980;BME280;57318;56.232;43.944;2023-07-13T01:18:04;98107.06;;;9.51;96.76
69980;BME280;57318;56.232;43.944;2023-07-13T01:20:30;98102.06;;;9.48;96.80
69980;BME280;57318;56.232;43.944;2023-07-13T01:23:10;98101.09;;;9.49;96.68
69980;BME280;57318;56.232;43.944;2023-07-13T01:25:39;98101.25;;;9.47;96.77
69980;BME280;57318;56.232;43.944;2023-07-13T01:28:06;98102.06;;;9.48;97.06
69980;BME280;57318;56.232;43.944;2023-07-13T01:30:39;98107.06;;;9.51;97.31
69980;BME280;57318;56.232;43.944;2023-07-13T01:33:07;98099.97;;;9.51;97.19
69980;BME280;57318;56.232;43.944;2023-07-13T01:35:33;98091.72;;;9.54;97.43
69980;BME280;57318;56.232;43.944;2023-07-13T01:37:59;98098.53;;;9.57;97.45
69980;BME280;57318;56.232;43.944;2023-07-13T01:40:27;98095.03;;;9.56;97.35
69980;BME280;57318;56.232;43.944;2023-07-13T01:42:53;98097.53;;;9.58;97.20
69980;BME280;57318;56.232;43.944;2023-07-13T01:45:19;98095.88;;;9.57;97.13
69980;BME280;57318;56.232;43.944;2023-07-13T01:47:44;98105.06;;;9.63;97.16
69980;BME280;57318;56.232;43.944;2023-07-13T01:50:12;98097.09;;;9.63;97.04
69980;BME280;57318;56.232;43.944;2023-07-13T01:52:38;98098.63;;;9.65;96.67
69980;BME280;57318;56.232;43.944;2023-07-13T01:55:04;98100.56;;;9.63;96.93
69980;BME280;57318;56.232;43.944;2023-07-13T01:57:30;98104.47;;;9.69;96.63
69980;BME280;57318;56.232;43.944;2023-07-13T01:59:56;98096.81;;;9.66;96.60
69980;BME280;57318;56.232;43.944;2023-07-13T02:02:22;98100.84;;;9.70;96.55
69980;BME280;57318;56.232;43.944;2023-07-13T02:04:48;98104.31;;;9.70;96.76
69980;BME280;57318;56.232;43.944;2023-07-13T02:07:13;98097.19;;;9.71;96.63
69980;BME280;57318;56.232;43.944;2023-07-13T02:09:40;98098.56;;;9.75;96.77
69980;BME280;57318;56.232;43.944;2023-07-13T02:12:08;98093.25;;;9.75;96.66
69980;BME280;57318;56.232;43.944;2023-07-13T02:14:34;98084.84;;;9.80;96.55
69980;BME280;57318;56.232;43.944;2023-07-13T02:17:01;98086.50;;;9.81;96.54
69980;BME280;57318;56.232;43.944;2023-07-13T02:19:27;98080.22;;;9.82;96.26
69980;BME280;57318;56.232;43.944;2023-07-13T02:21:53;98077.78;;;9.88;96.43
69980;BME280;57318;56.232;43.944;2023-07-13T02:24:19;98081.13;;;9.90;96.28
69980;BME280;57318;56.232;43.944;2023-07-13T02:26:47;98088.63;;;9.95;96.29
69980;BME280;57318;56.232;43.944;2023-07-13T02:29:13;98081.19;;;9.99;95.79
69980;BME280;57318;56.232;43.944;2023-07-13T02:31:39;98077.53;;;10.00;95.52
69980;BME280;57318;56.232;43.944;2023-07-13T02:34:05;98085.44;;;10.09;95.62
69980;BME280;57318;56.232;43.944;2023-07-13T02:36:31;98082.53;;;10.21;95.42
69980;BME280;57318;56.232;43.944;2023-07-13T02:39:01;98082.38;;;10.22;94.75
69980;BME280;57318;56.232;43.944;2023-07-13T02:41:27;98087.22;;;10.27;94.18
69980;BME280;57318;56.232;43.944;2023-07-13T02:43:52;98081.91;;;10.27;94.06
69980;BME280;57318;56.232;43.944;2023-07-13T02:46:18;98078.38;;;10.36;94.10
69980;BME280;57318;56.232;43.944;2023-07-13T02:48:45;98089.19;;;10.43;93.90
69980;BME280;57318;56.232;43.944;2023-07-13T02:51:11;98081.59;;;10.48;93.56
69980;BME280;57318;56.232;43.944;2023-07-13T02:53:37;98082.66;;;10.55;93.01
69980;BME280;57318;56.232;43.944;2023-07-13T02:56:04;98082.19;;;10.60;92.85
69980;BME280;57318;56.232;43.944;2023-07-13T02:58:30;98086.56;;;10.69;92.72
69980;BME280;57318;56.232;43.944;2023-07-13T03:00:57;98090.09;;;10.78;92.51
69980;BME280;57318;56.232;43.944;2023-07-13T03:03:30;98090.81;;;10.88;92.10
69980;BME280;57318;56.232;43.944;2023-07-13T03:06:01;98087.06;;;10.99;91.47
69980;BME280;57318;56.232;43.944;2023-07-13T03:08:27;98083.78;;;11.13;91.20
69980;BME280;57318;56.232;43.944;2023-07-13T03:11:04;98083.16;;;11.19;90.32
69980;BME280;57318;56.232;43.944;2023-07-13T03:13:30;98088.50;;;11.28;89.73
69980;BME280;57318;56.232;43.944;2023-07-13T03:15:56;98093.03;;;11.44;89.33
69980;BME280;57318;56.232;43.944;2023-07-13T03:18:29;98085.94;;;11.61;88.98
69980;BME280;57318;56.232;43.944;2023-07-13T03:20:55;98091.25;;;11.69;87.33
69980;BME280;57318;56.232;43.944;2023-07-13T03:23:22;98097.63;;;11.84;87.32
69980;BME280;57318;56.232;43.944;2023-07-13T03:25:48;98099.66;;;11.99;86.72
69980;BME280;57318;56.232;43.944;2023-07-13T03:28:15;98097.53;;;12.11;86.01
69980;BME280;57318;56.232;43.944;2023-07-13T03:30:43;98092.03;;;12.20;85.07
69980;BME280;57318;56.232;43.944;2023-07-13T03:33:08;98094.34;;;12.32;84.89
69980;BME280;57318;56.232;43.944;2023-07-13T03:35:35;98097.34;;;12.37;84.03
69980;BME280;57318;56.232;43.944;2023-07-13T03:38:00;98104.00;;;12.49;83.76
69980;BME280;57318;56.232;43.944;2023-07-13T03:40:27;98096.34;;;12.62;83.13
69980;BME280;57318;56.232;43.944;2023-07-13T03:42:53;98104.47;;;12.69;82.43
69980;BME280;57318;56.232;43.944;2023-07-13T03:45:19;98103.28;;;12.80;82.20
69980;BME280;57318;56.232;43.944;2023-07-13T03:47:45;98099.44;;;12.91;81.73
69980;BME280;57318;56.232;43.944;2023-07-13T03:50:11;98096.34;;;13.18;81.07
69980;BME280;57318;56.232;43.944;2023-07-13T03:52:37;98089.75;;;13.46;79.70
69980;BME280;57318;56.232;43.944;2023-07-13T03:55:03;98098.31;;;13.64;79.28
69980;BME280;57318;56.232;43.944;2023-07-13T03:57:33;98106.13;;;13.74;77.85
69980;BME280;57318;56.232;43.944;2023-07-13T04:00:00;98104.56;;;13.80;77.50
69980;BME280;57318;56.232;43.944;2023-07-13T04:02:25;98094.91;;;13.79;77.83
69980;BME280;57318;56.232;43.944;2023-07-13T04:04:51;98105.28;;;13.74;76.65
69980;BME280;57318;56.232;43.944;2023-07-13T04:07:18;98096.66;;;13.63;77.61
69980;BME280;57318;56.232;43.944;2023-07-13T04:09:44;98099.34;;;13.86;77.16
69980;BME280;57318;56.232;43.944;2023-07-13T04:12:10;98101.50;;;13.91;76.11
69980;BME280;57318;56.232;43.944;2023-07-13T04:14:36;98099.50;;;13.93;75.81
69980;BME280;57318;56.232;43.944;2023-07-13T04:17:01;98094.78;;;13.95;76.26
69980;BME280;57318;56.232;43.944;2023-07-13T04:19:27;98094.72;;;14.03;75.81
69980;BME280;57318;56.232;43.944;2023-07-13T04:21:53;98095.69;;;14.11;75.31
69980;BME280;57318;56.232;43.944;2023-07-13T04:24:18;98087.13;;;14.15;74.94
69980;BME280;57318;56.232;43.944;2023-07-13T04:26:44;98096.22;;;14.06;75.31
69980;BME280;57318;56.232;43.944;2023-07-13T04:29:10;98101.28;;;14.01;74.68
69980;BME280;57318;56.232;43.944;2023-07-13T04:31:36;98098.91;;;14.06;75.38
69980;BME280;57318;56.232;43.944;2023-07-13T04:34:02;98101.63;;;13.98;74.16
69980;BME280;57318;56.232;43.944;2023-07-13T04:36:28;98108.75;;;14.05;74.04
69980;BME280;57318;56.232;43.944;2023-07-13T04:38:54;98111.13;;;14.23;73.14
69980;BME280;57318;56.232;43.944;2023-07-13T04:41:20;98109.31;;;14.39;72.20
69980;BME280;57318;56.232;43.944;2023-07-13T04:43:47;98111.63;;;14.65;71.53
69980;BME280;57318;56.232;43.944;2023-07-13T04:46:15;98108.44;;;14.85;71.21
69980;BME280;57318;56.232;43.944;2023-07-13T04:48:43;98104.00;;;14.77;71.30
69980;BME280;57318;56.232;43.944;2023-07-13T04:51:09;98103.00;;;14.55;70.99
69980;BME280;57318;56.232;43.944;2023-07-13T04:53:35;98099.31;;;14.56;71.51
69980;BME280;57318;56.232;43.944;2023-07-13T04:56:02;98103.66;;;14.57;71.70
69980;BME280;57318;56.232;43.944;2023-07-13T04:58:27;98101.41;;;14.46;70.45
69980;BME280;57318;56.232;43.944;2023-07-13T05:00:58;98095.44;;;14.43;70.49
69980;BME280;57318;56.232;43.944;2023-07-13T05:03:26;98113.09;;;14.44;71.20
69980;BME280;57318;56.232;43.944;2023-07-13T05:06:03;98115.59;;;14.46;71.47
69980;BME280;57318;56.232;43.944;2023-07-13T05:08:29;98121.03;;;14.61;70.52
69980;BME280;57318;56.232;43.944;2023-07-13T05:10:55;98122.63;;;14.70;69.63
69980;BME280;57318;56.232;43.944;2023-07-13T05:13:22;98125.78;;;14.89;69.52
69980;BME280;57318;56.232;43.944;2023-07-13T05:16:18;98116.75;;;15.05;68.76
69980;BME280;57318;56.232;43.944;2023-07-13T05:18:44;98121.09;;;15.21;67.93
69980;BME280;57318;56.232;43.944;2023-07-13T05:21:10;98116.25;;;15.31;67.07
69980;BME280;57318;56.232;43.944;2023-07-13T05:23:37;98112.47;;;15.40;66.98
69980;BME280;57318;56.232;43.944;2023-07-13T05:26:03;98115.22;;;15.62;65.43
69980;BME280;57318;56.232;43.944;2023-07-13T05:28:31;98115.75;;;15.87;64.81
69980;BME280;57318;56.232;43.944;2023-07-13T05:30:57;98116.31;;;15.82;64.21
69980;BME280;57318;56.232;43.944;2023-07-13T05:33:25;98118.72;;;15.77;64.11
69980;BME280;57318;56.232;43.944;2023-07-13T05:35:51;98117.78;;;15.85;63.86
69980;BME280;57318;56.232;43.944;2023-07-13T05:38:17;98112.50;;;15.92;63.64
69980;BME280;57318;56.232;43.944;2023-07-13T05:40:44;98110.41;;;16.09;62.74
69980;BME280;57318;56.232;43.944;2023-07-13T05:43:10;98108.97;;;16.34;62.35
69980;BME280;57318;56.232;43.944;2023-07-13T05:45:36;98102.44;;;16.65;61.22
69980;BME280;57318;56.232;43.944;2023-07-13T05:48:01;98113.19;;;16.93;60.91
69980;BME280;57318;56.232;43.944;2023-07-13T05:50:27;98110.19;;;17.10;60.00
69980;BME280;57318;56.232;43.944;2023-07-13T05:52:53;98100.00;;;17.34;59.97
69980;BME280;57318;56.232;43.944;2023-07-13T05:55:19;98099.50;;;17.65;58.92
69980;BME280;57318;56.232;43.944;2023-07-13T05:57:45;98104.47;;;17.68;57.24
69980;BME280;57318;56.232;43.944;2023-07-13T06:00:11;98099.91;;;17.62;56.83
69980;BME280;57318;56.232;43.944;2023-07-13T06:02:38;98096.47;;;17.26;58.03
69980;BME280;57318;56.232;43.944;2023-07-13T06:05:04;98101.50;;;17.08;59.14
69980;BME280;57318;56.232;43.944;2023-07-13T06:07:30;98095.03;;;16.95;60.19
69980;BME280;57318;56.232;43.944;2023-07-13T06:09:56;98091.84;;;17.13;59.79
69980;BME280;57318;56.232;43.944;2023-07-13T06:12:22;98099.34;;;17.25;59.23
69980;BME280;57318;56.232;43.944;2023-07-13T06:14:48;98100.38;;;17.24;58.44
69980;BME280;57318;56.232;43.944;2023-07-13T06:17:13;98094.66;;;17.40;57.54
69980;BME280;57318;56.232;43.944;2023-07-13T06:19:39;98086.72;;;17.74;57.35
69980;BME280;57318;56.232;43.944;2023-07-13T06:22:05;98086.00;;;18.20;55.77
69980;BME280;57318;56.232;43.944;2023-07-13T06:24:32;98092.22;;;18.34;54.16
69980;BME280;57318;56.232;43.944;2023-07-13T06:26:58;98083.97;;;18.49;53.69
69980;BME280;57318;56.232;43.944;2023-07-13T06:29:24;98083.13;;;18.42;53.36
69980;BME280;57318;56.232;43.944;2023-07-13T06:31:50;98074.44;;;18.46;53.11
69980;BME280;57318;56.232;43.944;2023-07-13T06:34:15;98079.22;;;18.51;53.56
69980;BME280;57318;56.232;43.944;2023-07-13T06:36:41;98072.16;;;18.23;54.00
69980;BME280;57318;56.232;43.944;2023-07-13T06:39:07;98081.97;;;17.76;55.39
69980;BME280;57318;56.232;43.944;2023-07-13T06:41:33;98087.34;;;17.27;56.80
69980;BME280;57318;56.232;43.944;2023-07-13T06:44:00;98090.06;;;16.92;57.19
69980;BME280;57318;56.232;43.944;2023-07-13T06:46:28;98081.22;;;16.70;58.63
69980;BME280;57318;56.232;43.944;2023-07-13T06:48:55;98084.84;;;16.56;59.27
69980;BME280;57318;56.232;43.944;2023-07-13T06:51:21;98084.22;;;16.32;59.96
69980;BME280;57318;56.232;43.944;2023-07-13T06:53:47;98076.97;;;16.04;60.21
69980;BME280;57318;56.232;43.944;2023-07-13T06:56:13;98081.47;;;15.82;61.13
69980;BME280;57318;56.232;43.944;2023-07-13T06:58:39;98085.78;;;15.77;61.86
69980;BME280;57318;56.232;43.944;2023-07-13T07:01:05;98093.03;;;16.04;61.93
69980;BME280;57318;56.232;43.944;2023-07-13T07:03:31;98083.50;;;16.45;60.93
69980;BME280;57318;56.232;43.944;2023-07-13T07:06:17;98100.69;;;16.79;60.20
69980;BME280;57318;56.232;43.944;2023-07-13T07:08:44;98101.03;;;16.98;59.06
69980;BME280;57318;56.232;43.944;2023-07-13T07:11:13;98097.63;;;17.10;59.52
69980;BME280;57318;56.232;43.944;2023-07-13T07:13:39;98090.69;;;17.29;57.88
69980;BME280;57318;56.232;43.944;2023-07-13T07:16:05;98098.03;;;17.14;57.47
69980;BME280;57318;56.232;43.944;2023-07-13T07:18:32;98099.97;;;16.92;58.96
69980;BME280;57318;56.232;43.944;2023-07-13T07:20:57;98102.88;;;16.69;58.94
69980;BME280;57318;56.232;43.944;2023-07-13T07:23:23;98101.75;;;16.56;60.07
69980;BME280;57318;56.232;43.944;2023-07-13T07:25:49;98105.78;;;16.74;59.97
69980;BME280;57318;56.232;43.944;2023-07-13T07:28:17;98107.03;;;17.00;58.59
69980;BME280;57318;56.232;43.944;2023-07-13T07:30:46;98117.94;;;17.26;57.20
69980;BME280;57318;56.232;43.944;2023-07-13T07:33:12;98112.38;;;17.83;56.23
69980;BME280;57318;56.232;43.944;2023-07-13T07:35:38;98117.44;;;18.13;54.01
69980;BME280;57318;56.232;43.944;2023-07-13T07:38:04;98115.78;;;18.05;53.86
69980;BME280;57318;56.232;43.944;2023-07-13T07:40:30;98124.31;;;18.49;53.44
69980;BME280;57318;56.232;43.944;2023-07-13T07:42:57;98113.97;;;18.79;51.98
69980;BME280;57318;56.232;43.944;2023-07-13T07:45:23;98117.69;;;18.78;52.61
69980;BME280;57318;56.232;43.944;2023-07-13T07:47:49;98114.19;;;18.51;53.55
69980;BME280;57318;56.232;43.944;2023-07-13T07:50:15;98114.97;;;18.25;53.77
69980;BME280;57318;56.232;43.944;2023-07-13T07:52:41;98119.53;;;18.37;53.83
69980;BME280;57318;56.232;43.944;2023-07-13T07:55:07;98123.28;;;18.36;54.55
69980;BME280;57318;56.232;43.944;2023-07-13T07:57:33;98124.28;;;18.35;55.10
69980;BME280;57318;56.232;43.944;2023-07-13T07:59:59;98133.59;;;18.13;54.04
69980;BME280;57318;56.232;43.944;2023-07-13T08:02:25;98128.56;;;18.03;54.35
69980;BME280;57318;56.232;43.944;2023-07-13T08:04:52;98127.25;;;17.79;54.17
69980;BME280;57318;56.232;43.944;2023-07-13T08:07:18;98127.09;;;17.39;55.81
69980;BME280;57318;56.232;43.944;2023-07-13T08:09:43;98130.50;;;16.91;57.11
69980;BME280;57318;56.232;43.944;2023-07-13T08:12:09;98132.66;;;16.52;57.87
69980;BME280;57318;56.232;43.944;2023-07-13T08:14:35;98127.69;;;16.06;59.81
69980;BME280;57318;56.232;43.944;2023-07-13T08:17:01;98137.28;;;15.79;61.38
69980;BME280;57318;56.232;43.944;2023-07-13T08:19:27;98140.16;;;15.47;63.24
69980;BME280;57318;56.232;43.944;2023-07-13T08:21:55;98138.13;;;15.20;64.79
69980;BME280;57318;56.232;43.944;2023-07-13T08:24:24;98134.25;;;15.07;65.75
69980;BME280;57318;56.232;43.944;2023-07-13T08:26:51;98140.34;;;15.01;66.06
69980;BME280;57318;56.232;43.944;2023-07-13T08:29:17;98132.59;;;14.91;66.32
69980;BME280;57318;56.232;43.944;2023-07-13T08:31:42;98132.50;;;14.85;66.87
69980;BME280;57318;56.232;43.944;2023-07-13T08:34:08;98114.41;;;14.87;66.90
69980;BME280;57318;56.232;43.944;2023-07-13T08:36:41;98124.09;;;14.88;67.27
69980;BME280;57318;56.232;43.944;2023-07-13T08:39:07;98137.38;;;14.96;67.11
69980;BME280;57318;56.232;43.944;2023-07-13T08:41:33;98135.28;;;15.21;65.95
69980;BME280;57318;56.232;43.944;2023-07-13T08:44:00;98133.19;;;15.83;64.29
69980;BME280;57318;56.232;43.944;2023-07-13T08:46:35;98136.81;;;16.83;61.39
69980;BME280;57318;56.232;43.944;2023-07-13T08:49:13;98133.19;;;18.16;57.67
69980;BME280;57318;56.232;43.944;2023-07-13T08:54:44;98139.22;;;19.11;53.31
69980;BME280;57318;56.232;43.944;2023-07-13T08:57:18;98142.72;;;18.65;54.63
69980;BME280;57318;56.232;43.944;2023-07-13T08:59:48;98141.25;;;18.36;55.64
69980;BME280;57318;56.232;43.944;2023-07-13T09:02:28;98131.19;;;17.83;57.31
69980;BME280;57318;56.232;43.944;2023-07-13T09:05:10;98136.00;;;17.11;57.75
69980;BME280;57318;56.232;43.944;2023-07-13T09:10:46;98148.22;;;15.99;61.52
69980;BME280;57318;56.232;43.944;2023-07-13T09:15:46;98138.56;;;15.53;64.09
69980;BME280;57318;56.232;43.944;2023-07-13T09:20:52;98147.97;;;15.64;64.11
69980;BME280;57318;56.232;43.944;2023-07-13T09:23:22;98145.19;;;16.02;62.27
69980;BME280;57318;56.232;43.944;2023-07-13T09:25:52;98141.28;;;16.48;61.14
69980;BME280;57318;56.232;43.944;2023-07-13T09:28:26;98141.56;;;16.81;59.87
69980;BME280;57318;56.232;43.944;2023-07-13T09:31:20;98141.03;;;17.21;58.76
69980;BME280;57318;56.232;43.944;2023-07-13T09:33:49;98143.03;;;17.47;57.36
69980;BME280;57318;56.232;43.944;2023-07-13T09:36:23;98140.59;;;17.59;57.07
69980;BME280;57318;56.232;43.944;2023-07-13T09:39:35;98144.28;;;17.51;57.46
69980;BME280;57318;56.232;43.944;2023-07-13T09:44:37;98149.34;;;17.74;56.61
69980;BME280;57318;56.232;43.944;2023-07-13T09:47:13;98141.88;;;17.70;56.75
69980;BME280;57318;56.232;43.944;2023-07-13T09:49:41;98141.31;;;17.33;58.01
69980;BME280;57318;56.232;43.944;2023-07-13T09:52:15;98141.44;;;16.89;59.34
69980;BME280;57318;56.232;43.944;2023-07-13T09:54:45;98137.75;;;16.47;60.14
69980;BME280;57318;56.232;43.944;2023-07-13T09:57:23;98145.56;;;15.99;61.34
69980;BME280;57318;56.232;43.944;2023-07-13T09:59:51;98145.22;;;15.57;63.27
69980;BME280;57318;56.232;43.944;2023-07-13T10:02:29;98150.97;;;15.39;64.61
69980;BME280;57318;56.232;43.944;2023-07-13T10:05:14;98145.34;;;15.34;64.07
69980;BME280;57318;56.232;43.944;2023-07-13T10:07:45;98147.00;;;15.35;64.71
69980;BME280;57318;56.232;43.944;2023-07-13T10:10:19;98157.22;;;15.46;64.27
69980;BME280;57318;56.232;43.944;2023-07-13T10:12:46;98156.94;;;15.71;64.18
69980;BME280;57318;56.232;43.944;2023-07-13T10:15:18;98155.31;;;16.07;62.28
69980;BME280;57318;56.232;43.944;2023-07-13T10:17:45;98154.56;;;16.56;60.97
69980;BME280;57318;56.232;43.944;2023-07-13T10:20:11;98151.78;;;17.27;59.20
69980;BME280;57318;56.232;43.944;2023-07-13T10:23:04;98150.91;;;17.55;57.97
69980;BME280;57318;56.232;43.944;2023-07-13T10:25:35;98148.31;;;17.75;57.79
69980;BME280;57318;56.232;43.944;2023-07-13T10:28:16;98154.09;;;17.79;56.64
69980;BME280;57318;56.232;43.944;2023-07-13T10:30:47;98152.84;;;17.75;56.69
69980;BME280;57318;56.232;43.944;2023-07-13T10:33:14;98155.66;;;17.53;56.85
69980;BME280;57318;56.232;43.944;2023-07-13T10:35:43;98153.47;;;17.28;56.81
69980;BME280;57318;56.232;43.944;2023-07-13T10:38:14;98159.44;;;16.95;58.32
69980;BME280;57318;56.232;43.944;2023-07-13T10:43:26;98155.00;;;16.59;60.07
69980;BME280;57318;56.232;43.944;2023-07-13T10:45:53;98146.38;;;16.42;60.53
69980;BME280;57318;56.232;43.944;2023-07-13T10:48:22;98156.34;;;16.27;60.35
69980;BME280;57318;56.232;43.944;2023-07-13T10:50:53;98162.75;;;16.11;60.45
69980;BME280;57318;56.232;43.944;2023-07-13T10:53:32;98166.13;;;15.98;61.34
69980;BME280;57318;56.232;43.944;2023-07-13T10:56:15;98163.25;;;15.78;62.06
69980;BME280;57318;56.232;43.944;2023-07-13T10:58:44;98167.75;;;15.63;62.47
69980;BME280;57318;56.232;43.944;2023-07-13T11:01:13;98162.59;;;15.46;62.79
69980;BME280;57318;56.232;43.944;2023-07-13T11:06:37;98165.44;;;15.15;63.72
69980;BME280;57318;56.232;43.944;2023-07-13T11:09:30;98165.09;;;15.03;64.04
69980;BME280;57318;56.232;43.944;2023-07-13T11:28:17;98166.38;;;16.40;62.01
69980;BME280;57318;56.232;43.944;2023-07-13T11:36:16;98170.75;;;16.91;58.83
69980;BME280;57318;56.232;43.944;2023-07-13T11:41:50;98166.53;;;17.10;58.26
69980;BME280;57318;56.232;43.944;2023-07-13T11:44:20;98171.44;;;17.00;58.60
69980;BME280;57318;56.232;43.944;2023-07-13T11:46:52;98165.84;;;16.73;58.91
69980;BME280;57318;56.232;43.944;2023-07-13T11:49:21;98180.66;;;16.69;59.69
69980;BME280;57318;56.232;43.944;2023-07-13T11:51:47;98176.34;;;16.46;58.71
69980;BME280;57318;56.232;43.944;2023-07-13T11:54:33;98176.13;;;16.26;59.79
69980;BME280;57318;56.232;43.944;2023-07-13T11:57:47;98181.91;;;16.08;61.05
69980;BME280;57318;56.232;43.944;2023-07-13T11:59:51;98185.47;;;15.64;61.83
69980;BME280;57318;56.232;43.944;2023-07-13T12:02:30;98191.50;;;15.36;63.49
69980;BME280;57318;56.232;43.944;2023-07-13T12:04:57;98179.56;;;15.09;64.23
69980;BME280;57318;56.232;43.944;2023-07-13T12:07:24;98181.28;;;14.87;64.77
69980;BME280;57318;56.232;43.944;2023-07-13T12:09:53;98187.97;;;14.68;65.86
69980;BME280;57318;56.232;43.944;2023-07-13T12:12:22;98191.84;;;14.57;66.66
69980;BME280;57318;56.232;43.944;2023-07-13T12:14:52;98187.94;;;14.44;66.27
69980;BME280;57318;56.232;43.944;2023-07-13T12:17:20;98183.69;;;14.35;66.55
69980;BME280;57318;56.232;43.944;2023-07-13T12:19:48;98177.03;;;14.31;66.42
69980;BME280;57318;56.232;43.944;2023-07-13T12:22:16;98175.66;;;14.35;66.40
69980;BME280;57318;56.232;43.944;2023-07-13T12:24:43;98170.97;;;14.37;66.53
69980;BME280;57318;56.232;43.944;2023-07-13T12:27:26;98165.25;;;14.40;65.50
69980;BME280;57318;56.232;43.944;2023-07-13T12:30:21;98171.25;;;14.42;65.43
69980;BME280;57318;56.232;43.944;2023-07-13T12:32:55;98166.00;;;14.49;64.63
69980;BME280;57318;56.232;43.944;2023-07-13T12:35:21;98173.41;;;14.70;63.29
69980;BME280;57318;56.232;43.944;2023-07-13T12:37:47;98159.38;;;15.06;62.76
69980;BME280;57318;56.232;43.944;2023-07-13T12:40:18;98166.34;;;15.67;61.43
69980;BME280;57318;56.232;43.944;2023-07-13T12:42:47;98176.06;;;16.19;59.20
69980;BME280;57318;56.232;43.944;2023-07-13T12:45:26;98167.19;;;17.47;57.39
69980;BME280;57318;56.232;43.944;2023-07-13T12:47:56;98170.97;;;18.08;54.25
69980;BME280;57318;56.232;43.944;2023-07-13T12:50:33;98164.56;;;18.09;53.45
69980;BME280;57318;56.232;43.944;2023-07-13T12:53:03;98169.22;;;17.80;54.38
69980;BME280;57318;56.232;43.944;2023-07-13T12:55:29;98168.69;;;17.56;54.23
69980;BME280;57318;56.232;43.944;2023-07-13T12:57:59;98167.09;;;17.34;55.50
69980;BME280;57318;56.232;43.944;2023-07-13T13:00:33;98172.06;;;17.02;55.80
69980;BME280;57318;56.232;43.944;2023-07-13T13:05:44;98177.34;;;16.23;58.37
69980;BME280;57318;56.232;43.944;2023-07-13T13:08:14;98168.44;;;16.01;59.42
69980;BME280;57318;56.232;43.944;2023-07-13T13:10:40;98167.28;;;15.74;60.37
69980;BME280;57318;56.232;43.944;2023-07-13T13:13:06;98164.53;;;15.52;61.15
69980;BME280;57318;56.232;43.944;2023-07-13T13:15:31;98172.84;;;15.43;61.77
69980;BME280;57318;56.232;43.944;2023-07-13T13:17:58;98169.88;;;15.23;62.77
69980;BME280;57318;56.232;43.944;2023-07-13T13:20:24;98177.97;;;14.85;66.53
69980;BME280;57318;56.232;43.944;2023-07-13T13:22:53;98174.16;;;14.56;68.90
69980;BME280;57318;56.232;43.944;2023-07-13T13:25:19;98187.59;;;14.24;70.24
69980;BME280;57318;56.232;43.944;2023-07-13T13:27:46;98173.63;;;13.83;71.81
69980;BME280;57318;56.232;43.944;2023-07-13T13:30:12;98171.22;;;13.65;73.62
69980;BME280;57318;56.232;43.944;2023-07-13T13:32:48;98174.13;;;13.47;74.95
69980;BME280;57318;56.232;43.944;2023-07-13T13:35:20;98176.47;;;13.42;76.43
69980;BME280;57318;56.232;43.944;2023-07-13T13:37:47;98172.66;;;13.36;77.02
69980;BME280;57318;56.232;43.944;2023-07-13T13:40:20;98179.28;;;13.48;77.54
69980;BME280;57318;56.232;43.944;2023-07-13T13:42:48;98173.41;;;13.61;77.15
69980;BME280;57318;56.232;43.944;2023-07-13T13:45:14;98173.34;;;13.78;76.90
69980;BME280;57318;56.232;43.944;2023-07-13T13:47:44;98177.56;;;13.95;76.37
69980;BME280;57318;56.232;43.944;2023-07-13T13:50:17;98171.13;;;14.13;76.38
69980;BME280;57318;56.232;43.944;2023-07-13T13:52:44;98171.69;;;14.31;75.91